sensor_id;sensor_type;location;lat;lon;timestamp;temperature;humidity
13440;DHT22;6792;57.698;11.946;2022-12-07T00:01:48;6.80;50.40
13440;DHT22;6792;57.698;11.946;2022-12-07T00:04:18;6.80;50.40
13440;DHT22;6792;57.698;11.946;2022-12-07T00:06:51;6.90;50.40
13440;DHT22;6792;57.698;11.946;2022-12-07T00:09:21;6.90;50.40
13440;DHT22;6792;57.698;11.946;2022-12-07T00:11:52;6.90;50.30
13440;DHT22;6792;57.698;11.946;2022-12-07T00:14:21;6.80;49.70
13440;DHT22;6792;57.698;11.946;2022-12-07T00:16:51;6.80;50.20
13440;DHT22;6792;57.698;11.946;2022-12-07T00:19:20;6.80;50.30
13440;DHT22;6792;57.698;11.946;2022-12-07T00:21:49;6.80;50.40
13440;DHT22;6792;57.698;11.946;2022-12-07T00:24:18;6.80;50.40
13440;DHT22;6792;57.698;11.946;2022-12-07T00:26:48;6.70;49.80
13440;DHT22;6792;57.698;11.946;2022-12-07T00:29:19;6.70;50.30
13440;DHT22;6792;57.698;11.946;2022-12-07T00:31:50;6.70;50.30
13440;DHT22;6792;57.698;11.946;2022-12-07T00:34:20;6.70;50.40
13440;DHT22;6792;57.698;11.946;2022-12-07T00:36:50;6.70;50.40
13440;DHT22;6792;57.698;11.946;2022-12-07T00:39:19;6.70;50.40
13440;DHT22;6792;57.698;11.946;2022-12-07T00:41:49;6.80;50.40
13440;DHT22;6792;57.698;11.946;2022-12-07T00:44:18;6.80;50.30
13440;DHT22;6792;57.698;11.946;2022-12-07T00:46:47;6.80;50.30
13440;DHT22;6792;57.698;11.946;2022-12-07T00:49:17;6.80;50.30
13440;DHT22;6792;57.698;11.946;2022-12-07T00:51:48;6.80;50.30
13440;DHT22;6792;57.698;11.946;2022-12-07T00:54:20;6.80;50.30
13440;DHT22;6792;57.698;11.946;2022-12-07T00:56:49;6.80;50.30
13440;DHT22;6792;57.698;11.946;2022-12-07T00:59:18;6.80;50.40
13440;DHT22;6792;57.698;11.946;2022-12-07T01:01:47;6.80;50.40
13440;DHT22;6792;57.698;11.946;2022-12-07T01:04:16;6.80;50.30
13440;DHT22;6792;57.698;11.946;2022-12-07T01:06:45;6.80;50.30
13440;DHT22;6792;57.698;11.946;2022-12-07T01:09:14;6.80;50.30
13440;DHT22;6792;57.698;11.946;2022-12-07T01:11:43;6.80;50.40
13440;DHT22;6792;57.698;11.946;2022-12-07T01:14:12;6.80;50.40
13440;DHT22;6792;57.698;11.946;2022-12-07T01:16:41;6.80;50.40
13440;DHT22;6792;57.698;11.946;2022-12-07T01:19:11;6.80;50.40
13440;DHT22;6792;57.698;11.946;2022-12-07T01:21:40;6.90;50.40
13440;DHT22;6792;57.698;11.946;2022-12-07T01:24:10;6.90;50.40
13440;DHT22;6792;57.698;11.946;2022-12-07T01:26:40;7.00;50.50
13440;DHT22;6792;57.698;11.946;2022-12-07T01:29:09;6.90;50.30
13440;DHT22;6792;57.698;11.946;2022-12-07T01:31:38;6.90;50.30
13440;DHT22;6792;57.698;11.946;2022-12-07T01:34:08;6.90;50.30
13440;DHT22;6792;57.698;11.946;2022-12-07T01:36:37;6.90;50.40
13440;DHT22;6792;57.698;11.946;2022-12-07T01:39:09;7.00;50.40
13440;DHT22;6792;57.698;11.946;2022-12-07T01:41:40;7.00;50.40
13440;DHT22;6792;57.698;11.946;2022-12-07T01:44:14;7.00;50.50
13440;DHT22;6792;57.698;11.946;2022-12-07T01:46:45;7.00;50.50
13440;DHT22;6792;57.698;11.946;2022-12-07T01:49:22;7.00;50.50
13440;DHT22;6792;57.698;11.946;2022-12-07T01:51:55;7.10;50.50
13440;DHT22;6792;57.698;11.946;2022-12-07T01:54:25;7.00;50.40
13440;DHT22;6792;57.698;11.946;2022-12-07T01:56:56;7.00;50.40
13440;DHT22;6792;57.698;11.946;2022-12-07T01:59:26;7.00;50.40
13440;DHT22;6792;57.698;11.946;2022-12-07T02:01:56;7.00;49.90
13440;DHT22;6792;57.698;11.946;2022-12-07T02:04:25;7.10;50.40
13440;DHT22;6792;57.698;11.946;2022-12-07T02:06:55;7.10;50.40
13440;DHT22;6792;57.698;11.946;2022-12-07T02:09:26;7.10;49.90
13440;DHT22;6792;57.698;11.946;2022-12-07T02:11:55;7.10;50.40
13440;DHT22;6792;57.698;11.946;2022-12-07T02:14:25;7.20;50.40
13440;DHT22;6792;57.698;11.946;2022-12-07T02:17:02;7.20;50.40
13440;DHT22;6792;57.698;11.946;2022-12-07T02:20:06;7.20;50.40
13440;DHT22;6792;57.698;11.946;2022-12-07T02:22:54;7.20;50.40
13440;DHT22;6792;57.698;11.946;2022-12-07T02:25:30;7.20;50.00
13440;DHT22;6792;57.698;11.946;2022-12-07T02:28:02;7.20;50.00
13440;DHT22;6792;57.698;11.946;2022-12-07T02:30:34;7.10;50.00
13440;DHT22;6792;57.698;11.946;2022-12-07T02:33:07;7.20;50.60
13440;DHT22;6792;57.698;11.946;2022-12-07T02:35:39;7.20;50.60
13440;DHT22;6792;57.698;11.946;2022-12-07T02:38:12;7.20;50.70
13440;DHT22;6792;57.698;11.946;2022-12-07T02:40:44;7.20;50.60
13440;DHT22;6792;57.698;11.946;2022-12-07T02:43:16;7.20;50.60
13440;DHT22;6792;57.698;11.946;2022-12-07T02:45:47;7.20;50.00
13440;DHT22;6792;57.698;11.946;2022-12-07T02:48:18;7.30;50.60
13440;DHT22;6792;57.698;11.946;2022-12-07T02:50:50;7.30;50.50
13440;DHT22;6792;57.698;11.946;2022-12-07T02:53:34;7.30;50.50
13440;DHT22;6792;57.698;11.946;2022-12-07T02:56:07;7.20;49.90
13440;DHT22;6792;57.698;11.946;2022-12-07T02:58:49;7.20;50.10
13440;DHT22;6792;57.698;11.946;2022-12-07T03:01:23;7.20;50.60
13440;DHT22;6792;57.698;11.946;2022-12-07T03:03:58;7.20;50.60
13440;DHT22;6792;57.698;11.946;2022-12-07T03:06:29;7.20;50.50
13440;DHT22;6792;57.698;11.946;2022-12-07T03:09:01;7.30;49.90
13440;DHT22;6792;57.698;11.946;2022-12-07T03:11:33;7.30;50.50
13440;DHT22;6792;57.698;11.946;2022-12-07T03:14:08;7.30;50.50
13440;DHT22;6792;57.698;11.946;2022-12-07T03:16:40;7.30;50.50
13440;DHT22;6792;57.698;11.946;2022-12-07T03:19:13;7.30;50.50
13440;DHT22;6792;57.698;11.946;2022-12-07T03:21:44;7.30;50.40
13440;DHT22;6792;57.698;11.946;2022-12-07T03:24:17;7.30;50.40
13440;DHT22;6792;57.698;11.946;2022-12-07T03:26:49;7.30;50.40
13440;DHT22;6792;57.698;11.946;2022-12-07T03:29:20;7.30;50.40
13440;DHT22;6792;57.698;11.946;2022-12-07T03:31:53;7.40;50.40
13440;DHT22;6792;57.698;11.946;2022-12-07T03:34:25;7.40;50.40
13440;DHT22;6792;57.698;11.946;2022-12-07T03:36:57;7.40;50.40
13440;DHT22;6792;57.698;11.946;2022-12-07T03:39:29;7.40;50.40
13440;DHT22;6792;57.698;11.946;2022-12-07T03:42:00;7.50;50.40
13440;DHT22;6792;57.698;11.946;2022-12-07T03:44:33;7.50;50.40
13440;DHT22;6792;57.698;11.946;2022-12-07T03:47:05;7.50;50.40
13440;DHT22;6792;57.698;11.946;2022-12-07T03:49:39;7.50;50.40
13440;DHT22;6792;57.698;11.946;2022-12-07T03:52:12;7.50;50.40
13440;DHT22;6792;57.698;11.946;2022-12-07T03:54:45;7.50;50.40
13440;DHT22;6792;57.698;11.946;2022-12-07T03:57:15;7.50;50.40
13440;DHT22;6792;57.698;11.946;2022-12-07T03:59:46;7.50;50.50
13440;DHT22;6792;57.698;11.946;2022-12-07T04:02:16;7.50;49.90
13440;DHT22;6792;57.698;11.946;2022-12-07T04:04:45;7.60;50.40
13440;DHT22;6792;57.698;11.946;2022-12-07T04:07:14;7.60;50.40
13440;DHT22;6792;57.698;11.946;2022-12-07T04:09:43;7.60;50.40
13440;DHT22;6792;57.698;11.946;2022-12-07T04:12:12;7.60;50.30
13440;DHT22;6792;57.698;11.946;2022-12-07T04:14:41;7.60;50.30
13440;DHT22;6792;57.698;11.946;2022-12-07T04:17:11;7.60;50.30
13440;DHT22;6792;57.698;11.946;2022-12-07T04:19:40;7.50;50.30
13440;DHT22;6792;57.698;11.946;2022-12-07T04:22:10;7.50;50.40
13440;DHT22;6792;57.698;11.946;2022-12-07T04:24:39;7.50;50.30
13440;DHT22;6792;57.698;11.946;2022-12-07T04:27:08;7.50;50.40
13440;DHT22;6792;57.698;11.946;2022-12-07T04:29:38;7.50;50.40
13440;DHT22;6792;57.698;11.946;2022-12-07T04:32:07;7.50;50.40
13440;DHT22;6792;57.698;11.946;2022-12-07T04:34:36;7.50;50.40
13440;DHT22;6792;57.698;11.946;2022-12-07T04:37:05;7.50;50.40
13440;DHT22;6792;57.698;11.946;2022-12-07T04:39:34;7.50;50.80
13440;DHT22;6792;57.698;11.946;2022-12-07T04:42:04;7.50;50.40
13440;DHT22;6792;57.698;11.946;2022-12-07T04:44:35;7.50;50.50
13440;DHT22;6792;57.698;11.946;2022-12-07T04:47:04;7.50;50.50
13440;DHT22;6792;57.698;11.946;2022-12-07T04:49:35;7.50;50.60
13440;DHT22;6792;57.698;11.946;2022-12-07T04:52:05;7.60;50.70
13440;DHT22;6792;57.698;11.946;2022-12-07T04:54:34;7.60;50.80
13440;DHT22;6792;57.698;11.946;2022-12-07T04:57:03;7.70;50.80
13440;DHT22;6792;57.698;11.946;2022-12-07T04:59:32;7.70;51.30
13440;DHT22;6792;57.698;11.946;2022-12-07T05:02:01;7.70;50.80
13440;DHT22;6792;57.698;11.946;2022-12-07T05:04:31;7.80;50.80
13440;DHT22;6792;57.698;11.946;2022-12-07T05:07:00;7.80;50.80
13440;DHT22;6792;57.698;11.946;2022-12-07T05:09:29;7.80;50.80
13440;DHT22;6792;57.698;11.946;2022-12-07T05:11:58;7.90;50.90
13440;DHT22;6792;57.698;11.946;2022-12-07T05:14:27;7.90;51.50
13440;DHT22;6792;57.698;11.946;2022-12-07T05:16:56;7.90;50.90
13440;DHT22;6792;57.698;11.946;2022-12-07T05:19:25;7.90;50.90
13440;DHT22;6792;57.698;11.946;2022-12-07T05:21:54;7.90;50.90
13440;DHT22;6792;57.698;11.946;2022-12-07T05:24:24;7.90;51.50
13440;DHT22;6792;57.698;11.946;2022-12-07T05:26:53;8.00;51.00
13440;DHT22;6792;57.698;11.946;2022-12-07T05:29:22;8.00;51.00
13440;DHT22;6792;57.698;11.946;2022-12-07T05:31:51;8.00;51.00
13440;DHT22;6792;57.698;11.946;2022-12-07T05:34:20;8.00;51.00
13440;DHT22;6792;57.698;11.946;2022-12-07T05:36:49;8.00;51.00
13440;DHT22;6792;57.698;11.946;2022-12-07T05:39:18;8.00;51.10
13440;DHT22;6792;57.698;11.946;2022-12-07T05:41:47;8.10;51.10
13440;DHT22;6792;57.698;11.946;2022-12-07T05:44:34;8.10;50.60
13440;DHT22;6792;57.698;11.946;2022-12-07T05:47:03;8.00;50.70
13440;DHT22;6792;57.698;11.946;2022-12-07T05:49:33;8.00;51.20
13440;DHT22;6792;57.698;11.946;2022-12-07T05:52:02;8.10;51.20
13440;DHT22;6792;57.698;11.946;2022-12-07T05:54:32;8.10;50.70
13440;DHT22;6792;57.698;11.946;2022-12-07T05:57:01;8.10;51.10
13440;DHT22;6792;57.698;11.946;2022-12-07T05:59:30;8.10;51.10
13440;DHT22;6792;57.698;11.946;2022-12-07T06:02:02;8.10;51.10
13440;DHT22;6792;57.698;11.946;2022-12-07T06:04:35;8.10;50.60
13440;DHT22;6792;57.698;11.946;2022-12-07T06:07:04;8.10;51.10
13440;DHT22;6792;57.698;11.946;2022-12-07T06:09:34;8.10;50.60
13440;DHT22;6792;57.698;11.946;2022-12-07T06:12:05;8.10;50.60
13440;DHT22;6792;57.698;11.946;2022-12-07T06:14:52;8.20;51.20
13440;DHT22;6792;57.698;11.946;2022-12-07T06:17:21;8.10;51.20
13440;DHT22;6792;57.698;11.946;2022-12-07T06:19:50;8.10;51.70
13440;DHT22;6792;57.698;11.946;2022-12-07T06:22:20;8.10;50.60
13440;DHT22;6792;57.698;11.946;2022-12-07T06:24:49;8.10;50.60
13440;DHT22;6792;57.698;11.946;2022-12-07T06:27:18;8.10;51.10
13440;DHT22;6792;57.698;11.946;2022-12-07T06:29:47;8.10;51.10
13440;DHT22;6792;57.698;11.946;2022-12-07T06:32:16;8.10;50.50
13440;DHT22;6792;57.698;11.946;2022-12-07T06:34:45;8.10;51.10
13440;DHT22;6792;57.698;11.946;2022-12-07T06:37:15;8.10;51.10
13440;DHT22;6792;57.698;11.946;2022-12-07T06:39:44;8.10;50.60
13440;DHT22;6792;57.698;11.946;2022-12-07T06:42:13;8.10;51.20
13440;DHT22;6792;57.698;11.946;2022-12-07T06:44:43;8.10;51.20
13440;DHT22;6792;57.698;11.946;2022-12-07T06:47:12;8.10;51.10
13440;DHT22;6792;57.698;11.946;2022-12-07T06:49:41;8.10;50.60
13440;DHT22;6792;57.698;11.946;2022-12-07T06:52:10;8.20;51.20
13440;DHT22;6792;57.698;11.946;2022-12-07T06:54:39;8.20;51.20
13440;DHT22;6792;57.698;11.946;2022-12-07T06:57:08;8.20;51.20
13440;DHT22;6792;57.698;11.946;2022-12-07T06:59:38;8.20;51.20
13440;DHT22;6792;57.698;11.946;2022-12-07T07:02:09;8.20;51.20
13440;DHT22;6792;57.698;11.946;2022-12-07T07:04:38;8.20;51.20
13440;DHT22;6792;57.698;11.946;2022-12-07T07:07:10;8.20;51.10
13440;DHT22;6792;57.698;11.946;2022-12-07T07:09:39;8.20;51.10
13440;DHT22;6792;57.698;11.946;2022-12-07T07:12:09;8.20;50.60
13440;DHT22;6792;57.698;11.946;2022-12-07T07:14:38;8.20;51.10
13440;DHT22;6792;57.698;11.946;2022-12-07T07:17:07;8.30;51.10
13440;DHT22;6792;57.698;11.946;2022-12-07T07:19:36;8.20;51.00
13440;DHT22;6792;57.698;11.946;2022-12-07T07:22:06;8.20;51.00
13440;DHT22;6792;57.698;11.946;2022-12-07T07:24:35;8.20;51.00
13440;DHT22;6792;57.698;11.946;2022-12-07T07:27:04;8.20;51.00
13440;DHT22;6792;57.698;11.946;2022-12-07T07:29:33;8.20;51.50
13440;DHT22;6792;57.698;11.946;2022-12-07T07:32:03;8.20;50.50
13440;DHT22;6792;57.698;11.946;2022-12-07T07:34:34;8.20;51.10
13440;DHT22;6792;57.698;11.946;2022-12-07T07:37:05;8.20;51.10
13440;DHT22;6792;57.698;11.946;2022-12-07T07:39:37;8.20;51.00
13440;DHT22;6792;57.698;11.946;2022-12-07T07:42:06;8.20;51.10
13440;DHT22;6792;57.698;11.946;2022-12-07T07:44:36;8.20;51.20
13440;DHT22;6792;57.698;11.946;2022-12-07T07:47:05;8.20;51.10
13440;DHT22;6792;57.698;11.946;2022-12-07T07:49:34;8.10;51.00
13440;DHT22;6792;57.698;11.946;2022-12-07T07:52:05;8.00;50.50
13440;DHT22;6792;57.698;11.946;2022-12-07T07:54:34;8.00;51.10
13440;DHT22;6792;57.698;11.946;2022-12-07T07:57:06;8.00;51.20
13440;DHT22;6792;57.698;11.946;2022-12-07T07:59:35;8.00;51.20
13440;DHT22;6792;57.698;11.946;2022-12-07T08:02:08;8.00;51.30
13440;DHT22;6792;57.698;11.946;2022-12-07T08:04:38;7.90;50.60
13440;DHT22;6792;57.698;11.946;2022-12-07T08:07:07;7.90;51.20
13440;DHT22;6792;57.698;11.946;2022-12-07T08:09:38;7.90;51.20
13440;DHT22;6792;57.698;11.946;2022-12-07T08:12:08;7.80;51.20
13440;DHT22;6792;57.698;11.946;2022-12-07T08:14:37;7.90;51.20
13440;DHT22;6792;57.698;11.946;2022-12-07T08:17:06;7.90;51.20
13440;DHT22;6792;57.698;11.946;2022-12-07T08:19:35;7.90;51.20
13440;DHT22;6792;57.698;11.946;2022-12-07T08:22:04;7.90;51.20
13440;DHT22;6792;57.698;11.946;2022-12-07T08:24:35;7.90;51.10
13440;DHT22;6792;57.698;11.946;2022-12-07T08:27:04;7.90;51.10
13440;DHT22;6792;57.698;11.946;2022-12-07T08:29:36;7.80;50.50
13440;DHT22;6792;57.698;11.946;2022-12-07T08:32:05;7.80;51.10
13440;DHT22;6792;57.698;11.946;2022-12-07T08:34:35;7.80;51.10
13440;DHT22;6792;57.698;11.946;2022-12-07T08:37:04;7.80;51.00
13440;DHT22;6792;57.698;11.946;2022-12-07T08:42:24;7.80;50.60
13440;DHT22;6792;57.698;11.946;2022-12-07T08:44:56;7.80;51.10
13440;DHT22;6792;57.698;11.946;2022-12-07T08:47:25;7.80;51.20
13440;DHT22;6792;57.698;11.946;2022-12-07T08:49:55;7.80;51.00
13440;DHT22;6792;57.698;11.946;2022-12-07T08:52:24;7.70;51.40
13440;DHT22;6792;57.698;11.946;2022-12-07T08:54:53;7.70;51.00
13440;DHT22;6792;57.698;11.946;2022-12-07T08:57:22;7.60;50.40
13440;DHT22;6792;57.698;11.946;2022-12-07T08:59:51;7.60;50.50
13440;DHT22;6792;57.698;11.946;2022-12-07T09:02:20;7.70;51.10
13440;DHT22;6792;57.698;11.946;2022-12-07T09:04:49;7.70;51.10
13440;DHT22;6792;57.698;11.946;2022-12-07T09:07:19;7.70;51.10
13440;DHT22;6792;57.698;11.946;2022-12-07T09:09:48;7.70;51.10
13440;DHT22;6792;57.698;11.946;2022-12-07T09:12:17;7.70;51.20
13440;DHT22;6792;57.698;11.946;2022-12-07T09:14:46;7.70;51.10
13440;DHT22;6792;57.698;11.946;2022-12-07T09:17:15;7.70;51.10
13440;DHT22;6792;57.698;11.946;2022-12-07T09:19:44;7.80;51.10
13440;DHT22;6792;57.698;11.946;2022-12-07T09:22:13;7.80;51.10
13440;DHT22;6792;57.698;11.946;2022-12-07T09:24:42;7.80;51.00
13440;DHT22;6792;57.698;11.946;2022-12-07T09:27:13;7.80;50.30
13440;DHT22;6792;57.698;11.946;2022-12-07T09:29:42;7.80;50.80
13440;DHT22;6792;57.698;11.946;2022-12-07T09:32:11;7.80;50.80
13440;DHT22;6792;57.698;11.946;2022-12-07T09:34:40;7.80;50.80
13440;DHT22;6792;57.698;11.946;2022-12-07T09:37:09;7.90;50.80
13440;DHT22;6792;57.698;11.946;2022-12-07T09:39:40;7.90;50.80
13440;DHT22;6792;57.698;11.946;2022-12-07T09:42:11;7.80;50.70
13440;DHT22;6792;57.698;11.946;2022-12-07T09:44:41;7.90;50.80
13440;DHT22;6792;57.698;11.946;2022-12-07T09:47:11;7.80;50.10
13440;DHT22;6792;57.698;11.946;2022-12-07T09:49:40;7.80;50.70
13440;DHT22;6792;57.698;11.946;2022-12-07T09:52:19;7.80;50.60
13440;DHT22;6792;57.698;11.946;2022-12-07T09:54:51;7.80;50.60
13440;DHT22;6792;57.698;11.946;2022-12-07T09:57:25;7.80;50.60
13440;DHT22;6792;57.698;11.946;2022-12-07T09:59:53;7.70;50.60
13440;DHT22;6792;57.698;11.946;2022-12-07T10:02:32;7.70;50.70
13440;DHT22;6792;57.698;11.946;2022-12-07T10:05:00;7.60;50.00
13440;DHT22;6792;57.698;11.946;2022-12-07T10:07:30;7.60;50.80
13440;DHT22;6792;57.698;11.946;2022-12-07T10:09:59;7.50;50.20
13440;DHT22;6792;57.698;11.946;2022-12-07T10:12:31;7.60;50.20
13440;DHT22;6792;57.698;11.946;2022-12-07T10:15:04;7.60;50.30
13440;DHT22;6792;57.698;11.946;2022-12-07T10:17:37;7.60;50.90
13440;DHT22;6792;57.698;11.946;2022-12-07T10:20:20;7.60;50.90
13440;DHT22;6792;57.698;11.946;2022-12-07T10:23:01;7.60;50.80
13440;DHT22;6792;57.698;11.946;2022-12-07T10:25:36;7.60;50.30
13440;DHT22;6792;57.698;11.946;2022-12-07T10:28:16;7.60;50.40
13440;DHT22;6792;57.698;11.946;2022-12-07T10:30:52;7.60;50.30
13440;DHT22;6792;57.698;11.946;2022-12-07T10:33:35;7.60;50.90
13440;DHT22;6792;57.698;11.946;2022-12-07T10:36:19;7.70;50.30
13440;DHT22;6792;57.698;11.946;2022-12-07T10:38:52;7.60;50.80
13440;DHT22;6792;57.698;11.946;2022-12-07T10:41:21;7.50;50.70
13440;DHT22;6792;57.698;11.946;2022-12-07T10:43:52;7.50;50.70
13440;DHT22;6792;57.698;11.946;2022-12-07T10:46:49;7.50;50.70
13440;DHT22;6792;57.698;11.946;2022-12-07T10:52:44;7.50;50.70
13440;DHT22;6792;57.698;11.946;2022-12-07T10:55:22;7.50;50.60
13440;DHT22;6792;57.698;11.946;2022-12-07T10:58:00;7.50;50.50
13440;DHT22;6792;57.698;11.946;2022-12-07T11:00:33;7.40;50.50
13440;DHT22;6792;57.698;11.946;2022-12-07T11:06:16;7.30;49.90
13440;DHT22;6792;57.698;11.946;2022-12-07T11:08:54;7.20;50.00
13440;DHT22;6792;57.698;11.946;2022-12-07T11:11:26;7.20;50.10
13440;DHT22;6792;57.698;11.946;2022-12-07T11:14:01;7.20;50.70
13440;DHT22;6792;57.698;11.946;2022-12-07T11:16:45;7.10;50.70
13440;DHT22;6792;57.698;11.946;2022-12-07T11:19:23;7.00;50.60
13440;DHT22;6792;57.698;11.946;2022-12-07T11:21:55;7.00;50.60
13440;DHT22;6792;57.698;11.946;2022-12-07T11:24:30;7.00;50.10
13440;DHT22;6792;57.698;11.946;2022-12-07T11:27:05;7.00;50.70
13440;DHT22;6792;57.698;11.946;2022-12-07T11:30:00;7.00;50.10
13440;DHT22;6792;57.698;11.946;2022-12-07T11:32:44;7.00;50.60
13440;DHT22;6792;57.698;11.946;2022-12-07T11:35:20;7.00;50.50
13440;DHT22;6792;57.698;11.946;2022-12-07T11:37:51;7.00;49.90
13440;DHT22;6792;57.698;11.946;2022-12-07T11:40:24;7.00;50.40
13440;DHT22;6792;57.698;11.946;2022-12-07T11:42:58;7.00;50.30
13440;DHT22;6792;57.698;11.946;2022-12-07T11:45:29;6.90;50.20
13440;DHT22;6792;57.698;11.946;2022-12-07T11:48:01;6.80;49.80
13440;DHT22;6792;57.698;11.946;2022-12-07T11:50:37;6.80;50.40
13440;DHT22;6792;57.698;11.946;2022-12-07T11:53:11;6.80;50.40
13440;DHT22;6792;57.698;11.946;2022-12-07T11:55:45;6.80;49.80
13440;DHT22;6792;57.698;11.946;2022-12-07T11:58:22;6.80;50.40
13440;DHT22;6792;57.698;11.946;2022-12-07T12:00:55;6.80;49.80
13440;DHT22;6792;57.698;11.946;2022-12-07T12:03:30;6.80;49.70
13440;DHT22;6792;57.698;11.946;2022-12-07T12:05:59;6.80;50.30
13440;DHT22;6792;57.698;11.946;2022-12-07T12:08:30;6.80;50.30
13440;DHT22;6792;57.698;11.946;2022-12-07T12:11:05;6.80;50.20
13440;DHT22;6792;57.698;11.946;2022-12-07T12:17:05;6.80;49.60
13440;DHT22;6792;57.698;11.946;2022-12-07T12:19:37;6.70;50.20
13440;DHT22;6792;57.698;11.946;2022-12-07T12:22:12;6.70;49.70
13440;DHT22;6792;57.698;11.946;2022-12-07T12:24:42;6.70;50.20
13440;DHT22;6792;57.698;11.946;2022-12-07T12:27:19;6.70;50.10
13440;DHT22;6792;57.698;11.946;2022-12-07T12:29:52;6.70;50.00
13440;DHT22;6792;57.698;11.946;2022-12-07T12:32:24;6.70;50.00
13440;DHT22;6792;57.698;11.946;2022-12-07T12:35:17;6.70;49.40
13440;DHT22;6792;57.698;11.946;2022-12-07T12:37:46;6.60;49.40
13440;DHT22;6792;57.698;11.946;2022-12-07T12:40:41;6.60;49.60
13440;DHT22;6792;57.698;11.946;2022-12-07T12:43:47;6.60;50.10
13440;DHT22;6792;57.698;11.946;2022-12-07T12:46:48;6.60;49.40
13440;DHT22;6792;57.698;11.946;2022-12-07T12:49:38;6.50;49.50
13440;DHT22;6792;57.698;11.946;2022-12-07T12:58:42;6.40;49.80
13440;DHT22;6792;57.698;11.946;2022-12-07T13:01:42;6.40;50.40
13440;DHT22;6792;57.698;11.946;2022-12-07T13:04:47;6.40;49.60
13440;DHT22;6792;57.698;11.946;2022-12-07T13:07:13;6.40;49.60
13440;DHT22;6792;57.698;11.946;2022-12-07T13:09:45;6.40;50.20
13440;DHT22;6792;57.698;11.946;2022-12-07T13:12:15;6.40;49.60
13440;DHT22;6792;57.698;11.946;2022-12-07T13:14:56;6.40;50.00
13440;DHT22;6792;57.698;11.946;2022-12-07T13:18:22;6.40;49.50
13440;DHT22;6792;57.698;11.946;2022-12-07T13:20:52;6.40;50.00
13440;DHT22;6792;57.698;11.946;2022-12-07T13:23:28;6.30;50.10
13440;DHT22;6792;57.698;11.946;2022-12-07T13:26:12;6.40;50.20
13440;DHT22;6792;57.698;11.946;2022-12-07T13:28:42;6.40;50.10
13440;DHT22;6792;57.698;11.946;2022-12-07T13:31:32;6.40;49.50
13440;DHT22;6792;57.698;11.946;2022-12-07T13:34:03;6.50;50.00
13440;DHT22;6792;57.698;11.946;2022-12-07T13:36:34;6.50;50.10
13440;DHT22;6792;57.698;11.946;2022-12-07T13:39:20;6.50;50.10
13440;DHT22;6792;57.698;11.946;2022-12-07T13:41:54;6.60;50.00
13440;DHT22;6792;57.698;11.946;2022-12-07T13:44:26;6.60;50.00
13440;DHT22;6792;57.698;11.946;2022-12-07T13:47:01;6.60;50.00
13440;DHT22;6792;57.698;11.946;2022-12-07T13:49:32;6.60;50.00
13440;DHT22;6792;57.698;11.946;2022-12-07T13:52:15;6.60;49.90
13440;DHT22;6792;57.698;11.946;2022-12-07T13:54:46;6.60;49.90
13440;DHT22;6792;57.698;11.946;2022-12-07T13:57:17;6.60;49.80
13440;DHT22;6792;57.698;11.946;2022-12-07T13:59:47;6.60;49.70
13440;DHT22;6792;57.698;11.946;2022-12-07T14:02:24;6.50;49.70
13440;DHT22;6792;57.698;11.946;2022-12-07T14:05:06;6.50;49.60
13440;DHT22;6792;57.698;11.946;2022-12-07T14:07:35;6.40;49.60
13440;DHT22;6792;57.698;11.946;2022-12-07T14:10:21;6.40;49.70
13440;DHT22;6792;57.698;11.946;2022-12-07T14:12:37;6.40;49.80
13440;DHT22;6792;57.698;11.946;2022-12-07T14:15:19;6.40;49.80
13440;DHT22;6792;57.698;11.946;2022-12-07T14:17:53;6.40;49.80
13440;DHT22;6792;57.698;11.946;2022-12-07T14:20:35;6.30;49.20
13440;DHT22;6792;57.698;11.946;2022-12-07T14:23:06;6.30;49.70
13440;DHT22;6792;57.698;11.946;2022-12-07T14:25:47;6.20;49.80
13440;DHT22;6792;57.698;11.946;2022-12-07T14:28:28;6.20;49.80
13440;DHT22;6792;57.698;11.946;2022-12-07T14:30:58;6.20;49.80
13440;DHT22;6792;57.698;11.946;2022-12-07T14:33:28;6.20;49.40
13440;DHT22;6792;57.698;11.946;2022-12-07T14:35:58;6.20;49.90
13440;DHT22;6792;57.698;11.946;2022-12-07T14:38:27;6.30;49.90
13440;DHT22;6792;57.698;11.946;2022-12-07T14:40:59;6.30;49.80
13440;DHT22;6792;57.698;11.946;2022-12-07T14:43:47;6.30;49.80
13440;DHT22;6792;57.698;11.946;2022-12-07T14:46:16;6.30;49.80
13440;DHT22;6792;57.698;11.946;2022-12-07T14:48:45;6.30;49.70
13440;DHT22;6792;57.698;11.946;2022-12-07T14:51:15;6.30;49.10
13440;DHT22;6792;57.698;11.946;2022-12-07T14:53:48;6.30;49.70
13440;DHT22;6792;57.698;11.946;2022-12-07T14:56:17;6.20;49.10
13440;DHT22;6792;57.698;11.946;2022-12-07T14:58:46;6.20;49.70
13440;DHT22;6792;57.698;11.946;2022-12-07T15:01:15;6.20;49.70
13440;DHT22;6792;57.698;11.946;2022-12-07T15:03:45;6.20;49.70
13440;DHT22;6792;57.698;11.946;2022-12-07T15:06:16;6.20;49.70
13440;DHT22;6792;57.698;11.946;2022-12-07T15:08:48;6.20;50.10
13440;DHT22;6792;57.698;11.946;2022-12-07T15:11:18;6.20;49.70
13440;DHT22;6792;57.698;11.946;2022-12-07T15:13:47;6.20;49.10
13440;DHT22;6792;57.698;11.946;2022-12-07T15:16:38;6.20;49.70
13440;DHT22;6792;57.698;11.946;2022-12-07T15:19:12;6.10;49.80
13440;DHT22;6792;57.698;11.946;2022-12-07T15:21:42;6.20;49.90
13440;DHT22;6792;57.698;11.946;2022-12-07T15:24:12;6.20;49.80
13440;DHT22;6792;57.698;11.946;2022-12-07T15:26:41;6.20;49.80
13440;DHT22;6792;57.698;11.946;2022-12-07T15:29:11;6.20;49.70
13440;DHT22;6792;57.698;11.946;2022-12-07T15:31:42;6.20;49.70
13440;DHT22;6792;57.698;11.946;2022-12-07T15:34:11;6.20;49.60
13440;DHT22;6792;57.698;11.946;2022-12-07T15:36:40;6.10;49.60
13440;DHT22;6792;57.698;11.946;2022-12-07T15:39:10;6.10;49.00
13440;DHT22;6792;57.698;11.946;2022-12-07T15:41:39;6.10;49.60
13440;DHT22;6792;57.698;11.946;2022-12-07T15:44:11;6.10;49.10
13440;DHT22;6792;57.698;11.946;2022-12-07T15:46:58;6.10;49.70
13440;DHT22;6792;57.698;11.946;2022-12-07T15:49:28;5.90;49.80
13440;DHT22;6792;57.698;11.946;2022-12-07T15:51:57;5.90;49.80
13440;DHT22;6792;57.698;11.946;2022-12-07T15:54:27;5.90;49.30
13440;DHT22;6792;57.698;11.946;2022-12-07T15:56:57;6.00;49.90
13440;DHT22;6792;57.698;11.946;2022-12-07T15:59:27;6.00;50.00
13440;DHT22;6792;57.698;11.946;2022-12-07T16:01:56;6.00;49.80
13440;DHT22;6792;57.698;11.946;2022-12-07T16:04:27;6.00;49.70
13440;DHT22;6792;57.698;11.946;2022-12-07T16:09:37;6.00;49.10
13440;DHT22;6792;57.698;11.946;2022-12-07T16:12:07;6.00;49.70
13440;DHT22;6792;57.698;11.946;2022-12-07T16:14:37;6.00;49.70
13440;DHT22;6792;57.698;11.946;2022-12-07T16:17:07;6.00;49.70
13440;DHT22;6792;57.698;11.946;2022-12-07T16:19:36;6.00;49.60
13440;DHT22;6792;57.698;11.946;2022-12-07T16:22:06;5.90;49.60
13440;DHT22;6792;57.698;11.946;2022-12-07T16:24:35;5.90;49.70
13440;DHT22;6792;57.698;11.946;2022-12-07T16:27:04;5.80;49.60
13440;DHT22;6792;57.698;11.946;2022-12-07T16:29:35;5.80;49.10
13440;DHT22;6792;57.698;11.946;2022-12-07T16:32:05;5.80;49.80
13440;DHT22;6792;57.698;11.946;2022-12-07T16:34:37;5.70;49.70
13440;DHT22;6792;57.698;11.946;2022-12-07T16:37:08;5.70;49.20
13440;DHT22;6792;57.698;11.946;2022-12-07T16:39:37;5.70;49.80